sensor_id;sensor_type;location;lat;lon;timestamp;P1;durP1;ratioP1;P2;durP2;ratioP2
55007;SDS011;40902;45.116;21.296;2023-09-12T00:02:07;4.43;;;3.75;;
55007;SDS011;40902;45.116;21.296;2023-09-12T00:04:34;4.78;;;3.42;;
55007;SDS011;40902;45.116;21.296;2023-09-12T00:07:00;4.97;;;3.47;;
55007;SDS011;40902;45.116;21.296;2023-09-12T00:09:26;5.75;;;3.40;;
55007;SDS011;40902;45.116;21.296;2023-09-12T00:11:53;4.68;;;3.33;;
55007;SDS011;40902;45.116;21.296;2023-09-12T00:14:19;4.38;;;3.30;;
55007;SDS011;40902;45.116;21.296;2023-09-12T00:16:45;5.03;;;3.55;;
55007;SDS011;40902;45.116;21.296;2023-09-12T00:19:11;4.88;;;3.47;;
55007;SDS011;40902;45.116;21.296;2023-09-12T00:21:37;4.55;;;3.38;;
55007;SDS011;40902;45.116;21.296;2023-09-12T00:24:03;4.38;;;3.30;;
55007;SDS011;40902;45.116;21.296;2023-09-12T00:26:29;5.15;;;3.55;;
55007;SDS011;40902;45.116;21.296;2023-09-12T00:28:55;4.75;;;3.63;;
55007;SDS011;40902;45.116;21.296;2023-09-12T00:31:22;5.57;;;3.30;;
55007;SDS011;40902;45.116;21.296;2023-09-12T00:33:47;4.88;;;3.47;;
55007;SDS011;40902;45.116;21.296;2023-09-12T00:36:13;4.95;;;3.78;;
55007;SDS011;40902;45.116;21.296;2023-09-12T00:38:39;4.93;;;3.90;;
55007;SDS011;40902;45.116;21.296;2023-09-12T00:41:04;4.43;;;3.13;;
55007;SDS011;40902;45.116;21.296;2023-09-12T00:43:30;4.45;;;3.45;;
55007;SDS011;40902;45.116;21.296;2023-09-12T00:45:56;4.57;;;3.47;;
55007;SDS011;40902;45.116;21.296;2023-09-12T00:48:21;5.53;;;3.85;;
55007;SDS011;40902;45.116;21.296;2023-09-12T00:50:48;5.40;;;3.42;;
55007;SDS011;40902;45.116;21.296;2023-09-12T00:53:14;5.55;;;3.35;;
55007;SDS011;40902;45.116;21.296;2023-09-12T00:55:44;4.78;;;3.50;;
55007;SDS011;40902;45.116;21.296;2023-09-12T00:58:14;5.40;;;4.13;;
55007;SDS011;40902;45.116;21.296;2023-09-12T01:00:40;4.65;;;3.55;;
55007;SDS011;40902;45.116;21.296;2023-09-12T01:03:07;6.30;;;3.72;;
55007;SDS011;40902;45.116;21.296;2023-09-12T01:05:32;5.28;;;3.63;;
55007;SDS011;40902;45.116;21.296;2023-09-12T01:07:59;5.20;;;3.45;;
55007;SDS011;40902;45.116;21.296;2023-09-12T01:10:26;5.47;;;3.85;;
55007;SDS011;40902;45.116;21.296;2023-09-12T01:12:52;4.38;;;3.35;;
55007;SDS011;40902;45.116;21.296;2023-09-12T01:15:18;5.00;;;3.67;;
55007;SDS011;40902;45.116;21.296;2023-09-12T01:17:44;4.63;;;3.67;;
55007;SDS011;40902;45.116;21.296;2023-09-12T01:20:14;5.03;;;3.70;;
55007;SDS011;40902;45.116;21.296;2023-09-12T01:26:01;5.10;;;3.57;;
55007;SDS011;40902;45.116;21.296;2023-09-12T01:28:57;4.53;;;3.22;;
55007;SDS011;40902;45.116;21.296;2023-09-12T01:31:24;5.22;;;3.83;;
55007;SDS011;40902;45.116;21.296;2023-09-12T01:33:54;4.65;;;3.67;;
55007;SDS011;40902;45.116;21.296;2023-09-12T01:36:21;4.70;;;3.47;;
55007;SDS011;40902;45.116;21.296;2023-09-12T01:38:47;5.25;;;3.63;;
55007;SDS011;40902;45.116;21.296;2023-09-12T01:41:13;4.70;;;3.63;;
55007;SDS011;40902;45.116;21.296;2023-09-12T01:43:38;4.70;;;3.53;;
55007;SDS011;40902;45.116;21.296;2023-09-12T01:46:06;4.93;;;3.67;;
55007;SDS011;40902;45.116;21.296;2023-09-12T01:48:33;5.32;;;3.60;;
55007;SDS011;40902;45.116;21.296;2023-09-12T01:51:01;5.45;;;3.80;;
55007;SDS011;40902;45.116;21.296;2023-09-12T01:53:28;4.63;;;3.50;;
55007;SDS011;40902;45.116;21.296;2023-09-12T01:55:55;4.63;;;3.63;;
55007;SDS011;40902;45.116;21.296;2023-09-12T01:58:23;4.57;;;3.10;;
55007;SDS011;40902;45.116;21.296;2023-09-12T02:00:50;4.70;;;3.58;;
55007;SDS011;40902;45.116;21.296;2023-09-12T02:03:16;5.72;;;3.92;;
55007;SDS011;40902;45.116;21.296;2023-09-12T02:05:42;5.03;;;3.40;;
55007;SDS011;40902;45.116;21.296;2023-09-12T02:08:08;4.75;;;3.42;;
55007;SDS011;40902;45.116;21.296;2023-09-12T02:10:33;4.72;;;3.33;;
55007;SDS011;40902;45.116;21.296;2023-09-12T02:12:59;4.68;;;4.00;;
55007;SDS011;40902;45.116;21.296;2023-09-12T02:15:25;4.63;;;3.67;;
55007;SDS011;40902;45.116;21.296;2023-09-12T02:17:51;4.80;;;3.90;;
55007;SDS011;40902;45.116;21.296;2023-09-12T02:20:17;4.68;;;3.40;;
55007;SDS011;40902;45.116;21.296;2023-09-12T02:22:44;4.20;;;3.38;;
55007;SDS011;40902;45.116;21.296;2023-09-12T02:25:10;5.07;;;3.50;;
55007;SDS011;40902;45.116;21.296;2023-09-12T02:27:36;4.80;;;3.10;;
55007;SDS011;40902;45.116;21.296;2023-09-12T02:30:01;4.53;;;3.65;;
55007;SDS011;40902;45.116;21.296;2023-09-12T02:32:28;4.47;;;3.30;;
55007;SDS011;40902;45.116;21.296;2023-09-12T02:34:53;4.43;;;3.25;;
55007;SDS011;40902;45.116;21.296;2023-09-12T02:37:21;4.97;;;3.58;;
55007;SDS011;40902;45.116;21.296;2023-09-12T02:39:47;4.75;;;3.28;;
55007;SDS011;40902;45.116;21.296;2023-09-12T02:42:13;4.32;;;3.30;;
55007;SDS011;40902;45.116;21.296;2023-09-12T02:44:38;4.10;;;3.40;;
55007;SDS011;40902;45.116;21.296;2023-09-12T02:47:05;5.55;;;3.50;;
55007;SDS011;40902;45.116;21.296;2023-09-12T02:49:31;4.38;;;3.50;;
55007;SDS011;40902;45.116;21.296;2023-09-12T02:51:57;5.20;;;3.40;;
55007;SDS011;40902;45.116;21.296;2023-09-12T02:54:22;5.07;;;3.60;;
55007;SDS011;40902;45.116;21.296;2023-09-12T02:56:48;4.70;;;3.72;;
55007;SDS011;40902;45.116;21.296;2023-09-12T02:59:14;4.18;;;3.42;;
55007;SDS011;40902;45.116;21.296;2023-09-12T03:01:39;5.07;;;3.63;;
55007;SDS011;40902;45.116;21.296;2023-09-12T03:04:05;5.63;;;3.42;;
55007;SDS011;40902;45.116;21.296;2023-09-12T03:06:31;4.97;;;3.30;;
55007;SDS011;40902;45.116;21.296;2023-09-12T03:08:57;4.53;;;3.22;;
55007;SDS011;40902;45.116;21.296;2023-09-12T03:11:25;4.90;;;3.97;;
55007;SDS011;40902;45.116;21.296;2023-09-12T03:13:52;4.53;;;3.67;;
55007;SDS011;40902;45.116;21.296;2023-09-12T03:16:18;4.47;;;3.30;;
55007;SDS011;40902;45.116;21.296;2023-09-12T03:18:44;4.70;;;3.45;;
55007;SDS011;40902;45.116;21.296;2023-09-12T03:21:09;4.03;;;3.22;;
55007;SDS011;40902;45.116;21.296;2023-09-12T03:23:35;4.32;;;3.20;;
55007;SDS011;40902;45.116;21.296;2023-09-12T03:26:04;4.03;;;3.15;;
55007;SDS011;40902;45.116;21.296;2023-09-12T03:28:31;4.57;;;3.30;;
55007;SDS011;40902;45.116;21.296;2023-09-12T03:31:05;5.25;;;3.55;;
55007;SDS011;40902;45.116;21.296;2023-09-12T03:33:39;5.22;;;3.58;;
55007;SDS011;40902;45.116;21.296;2023-09-12T03:36:06;5.13;;;3.63;;
55007;SDS011;40902;45.116;21.296;2023-09-12T03:38:32;5.45;;;3.50;;
55007;SDS011;40902;45.116;21.296;2023-09-12T03:40:58;5.18;;;3.55;;
55007;SDS011;40902;45.116;21.296;2023-09-12T03:43:24;4.13;;;3.00;;
55007;SDS011;40902;45.116;21.296;2023-09-12T03:45:50;6.18;;;3.22;;
55007;SDS011;40902;45.116;21.296;2023-09-12T03:48:16;4.90;;;3.20;;
55007;SDS011;40902;45.116;21.296;2023-09-12T03:50:41;5.07;;;3.30;;
55007;SDS011;40902;45.116;21.296;2023-09-12T03:53:07;4.20;;;3.30;;
55007;SDS011;40902;45.116;21.296;2023-09-12T03:55:33;5.07;;;3.45;;
55007;SDS011;40902;45.116;21.296;2023-09-12T03:57:59;3.92;;;3.10;;
55007;SDS011;40902;45.116;21.296;2023-09-12T04:00:25;4.25;;;3.17;;
55007;SDS011;40902;45.116;21.296;2023-09-12T04:02:51;4.78;;;3.35;;
55007;SDS011;40902;45.116;21.296;2023-09-12T04:05:17;4.28;;;3.40;;
55007;SDS011;40902;45.116;21.296;2023-09-12T04:07:42;4.93;;;3.20;;
55007;SDS011;40902;45.116;21.296;2023-09-12T04:10:08;4.20;;;3.50;;
55007;SDS011;40902;45.116;21.296;2023-09-12T04:12:34;4.85;;;3.25;;
55007;SDS011;40902;45.116;21.296;2023-09-12T04:14:59;5.30;;;3.45;;
55007;SDS011;40902;45.116;21.296;2023-09-12T04:17:25;4.50;;;3.28;;
55007;SDS011;40902;45.116;21.296;2023-09-12T04:19:51;4.28;;;3.33;;
55007;SDS011;40902;45.116;21.296;2023-09-12T04:22:16;5.50;;;3.50;;
55007;SDS011;40902;45.116;21.296;2023-09-12T04:24:42;4.55;;;3.60;;
55007;SDS011;40902;45.116;21.296;2023-09-12T04:27:08;4.90;;;3.42;;
55007;SDS011;40902;45.116;21.296;2023-09-12T04:29:33;4.72;;;3.25;;
55007;SDS011;40902;45.116;21.296;2023-09-12T04:32:03;5.28;;;3.63;;
55007;SDS011;40902;45.116;21.296;2023-09-12T04:34:29;4.47;;;3.47;;
55007;SDS011;40902;45.116;21.296;2023-09-12T04:36:55;4.88;;;3.13;;
55007;SDS011;40902;45.116;21.296;2023-09-12T04:39:21;4.05;;;3.30;;
55007;SDS011;40902;45.116;21.296;2023-09-12T04:41:47;4.47;;;3.40;;
55007;SDS011;40902;45.116;21.296;2023-09-12T04:44:13;5.10;;;3.35;;
55007;SDS011;40902;45.116;21.296;2023-09-12T04:46:39;4.93;;;3.53;;
55007;SDS011;40902;45.116;21.296;2023-09-12T04:49:04;5.50;;;3.67;;
55007;SDS011;40902;45.116;21.296;2023-09-12T04:51:30;5.18;;;3.75;;
55007;SDS011;40902;45.116;21.296;2023-09-12T04:53:56;4.28;;;3.28;;
55007;SDS011;40902;45.116;21.296;2023-09-12T04:56:21;4.50;;;3.42;;
55007;SDS011;40902;45.116;21.296;2023-09-12T04:58:49;4.40;;;3.20;;
55007;SDS011;40902;45.116;21.296;2023-09-12T05:01:15;4.05;;;3.22;;
55007;SDS011;40902;45.116;21.296;2023-09-12T05:03:41;5.25;;;3.75;;
55007;SDS011;40902;45.116;21.296;2023-09-12T05:06:07;4.68;;;3.40;;
55007;SDS011;40902;45.116;21.296;2023-09-12T05:08:33;4.40;;;3.20;;
55007;SDS011;40902;45.116;21.296;2023-09-12T05:10:59;4.40;;;3.30;;
55007;SDS011;40902;45.116;21.296;2023-09-12T05:13:26;4.80;;;3.40;;
55007;SDS011;40902;45.116;21.296;2023-09-12T05:15:52;5.18;;;3.20;;
55007;SDS011;40902;45.116;21.296;2023-09-12T05:18:18;4.75;;;3.30;;
55007;SDS011;40902;45.116;21.296;2023-09-12T05:20:44;4.22;;;3.17;;
55007;SDS011;40902;45.116;21.296;2023-09-12T05:23:09;4.93;;;3.28;;
55007;SDS011;40902;45.116;21.296;2023-09-12T05:25:36;3.75;;;2.92;;
55007;SDS011;40902;45.116;21.296;2023-09-12T05:28:01;5.05;;;3.17;;
55007;SDS011;40902;45.116;21.296;2023-09-12T05:30:28;3.88;;;3.10;;
55007;SDS011;40902;45.116;21.296;2023-09-12T05:32:53;4.35;;;3.20;;
55007;SDS011;40902;45.116;21.296;2023-09-12T05:35:19;5.85;;;3.42;;
55007;SDS011;40902;45.116;21.296;2023-09-12T05:37:45;3.60;;;2.95;;
55007;SDS011;40902;45.116;21.296;2023-09-12T05:40:10;5.63;;;3.28;;
55007;SDS011;40902;45.116;21.296;2023-09-12T05:42:36;5.63;;;3.25;;
55007;SDS011;40902;45.116;21.296;2023-09-12T05:45:02;5.65;;;3.58;;
55007;SDS011;40902;45.116;21.296;2023-09-12T05:47:28;5.18;;;3.40;;
55007;SDS011;40902;45.116;21.296;2023-09-12T05:49:53;4.50;;;3.60;;
55007;SDS011;40902;45.116;21.296;2023-09-12T05:52:19;3.97;;;3.05;;
55007;SDS011;40902;45.116;21.296;2023-09-12T05:54:45;4.15;;;3.30;;
55007;SDS011;40902;45.116;21.296;2023-09-12T05:57:10;5.20;;;3.92;;
55007;SDS011;40902;45.116;21.296;2023-09-12T05:59:37;3.63;;;3.08;;
55007;SDS011;40902;45.116;21.296;2023-09-12T06:02:03;5.75;;;3.47;;
55007;SDS011;40902;45.116;21.296;2023-09-12T06:04:31;4.70;;;3.30;;
55007;SDS011;40902;45.116;21.296;2023-09-12T06:07:00;4.55;;;3.15;;
55007;SDS011;40902;45.116;21.296;2023-09-12T06:09:29;5.20;;;3.42;;
55007;SDS011;40902;45.116;21.296;2023-09-12T06:11:55;4.68;;;3.10;;
55007;SDS011;40902;45.116;21.296;2023-09-12T06:14:21;4.90;;;3.40;;
55007;SDS011;40902;45.116;21.296;2023-09-12T06:16:47;4.07;;;3.20;;
55007;SDS011;40902;45.116;21.296;2023-09-12T06:19:13;4.93;;;3.13;;
55007;SDS011;40902;45.116;21.296;2023-09-12T06:21:42;4.47;;;3.25;;
55007;SDS011;40902;45.116;21.296;2023-09-12T06:24:09;3.85;;;3.00;;
55007;SDS011;40902;45.116;21.296;2023-09-12T06:26:36;3.72;;;2.90;;
55007;SDS011;40902;45.116;21.296;2023-09-12T06:29:03;4.10;;;3.25;;
55007;SDS011;40902;45.116;21.296;2023-09-12T06:31:29;5.75;;;3.35;;
55007;SDS011;40902;45.116;21.296;2023-09-12T06:33:55;4.22;;;3.15;;
55007;SDS011;40902;45.116;21.296;2023-09-12T06:36:21;3.55;;;2.88;;
55007;SDS011;40902;45.116;21.296;2023-09-12T06:38:49;5.10;;;3.20;;
55007;SDS011;40902;45.116;21.296;2023-09-12T06:41:15;4.43;;;3.22;;
55007;SDS011;40902;45.116;21.296;2023-09-12T06:43:43;6.93;;;3.55;;
55007;SDS011;40902;45.116;21.296;2023-09-12T06:46:08;5.50;;;3.20;;
55007;SDS011;40902;45.116;21.296;2023-09-12T06:48:34;4.45;;;3.25;;
55007;SDS011;40902;45.116;21.296;2023-09-12T06:51:00;4.30;;;3.05;;
55007;SDS011;40902;45.116;21.296;2023-09-12T06:53:29;4.38;;;3.30;;
55007;SDS011;40902;45.116;21.296;2023-09-12T06:55:55;5.88;;;3.53;;
55007;SDS011;40902;45.116;21.296;2023-09-12T06:58:22;5.22;;;3.50;;
55007;SDS011;40902;45.116;21.296;2023-09-12T07:00:48;3.83;;;3.05;;
55007;SDS011;40902;45.116;21.296;2023-09-12T07:03:13;4.35;;;3.20;;
55007;SDS011;40902;45.116;21.296;2023-09-12T07:05:40;5.05;;;3.38;;
55007;SDS011;40902;45.116;21.296;2023-09-12T07:08:06;4.75;;;3.30;;
55007;SDS011;40902;45.116;21.296;2023-09-12T07:10:33;13.98;;;3.88;;
55007;SDS011;40902;45.116;21.296;2023-09-12T07:12:59;10.80;;;4.15;;
55007;SDS011;40902;45.116;21.296;2023-09-12T07:15:25;17.77;;;5.90;;
55007;SDS011;40902;45.116;21.296;2023-09-12T07:17:50;15.60;;;5.55;;
55007;SDS011;40902;45.116;21.296;2023-09-12T07:20:17;18.13;;;5.45;;
55007;SDS011;40902;45.116;21.296;2023-09-12T07:22:45;21.10;;;6.68;;
55007;SDS011;40902;45.116;21.296;2023-09-12T07:25:11;15.75;;;5.50;;
55007;SDS011;40902;45.116;21.296;2023-09-12T07:27:39;11.25;;;4.88;;
55007;SDS011;40902;45.116;21.296;2023-09-12T07:30:05;13.05;;;4.82;;
55007;SDS011;40902;45.116;21.296;2023-09-12T07:32:32;12.13;;;4.70;;
55007;SDS011;40902;45.116;21.296;2023-09-12T07:34:57;9.40;;;4.85;;
55007;SDS011;40902;45.116;21.296;2023-09-12T07:37:23;11.07;;;4.28;;
55007;SDS011;40902;45.116;21.296;2023-09-12T07:39:49;10.90;;;4.70;;
55007;SDS011;40902;45.116;21.296;2023-09-12T07:42:14;11.43;;;4.63;;
55007;SDS011;40902;45.116;21.296;2023-09-12T07:44:40;10.57;;;4.45;;
55007;SDS011;40902;45.116;21.296;2023-09-12T07:47:06;11.05;;;4.35;;
55007;SDS011;40902;45.116;21.296;2023-09-12T07:49:32;8.43;;;4.07;;
55007;SDS011;40902;45.116;21.296;2023-09-12T07:51:58;8.65;;;4.20;;
55007;SDS011;40902;45.116;21.296;2023-09-12T07:54:23;9.73;;;4.40;;
55007;SDS011;40902;45.116;21.296;2023-09-12T07:56:49;11.35;;;4.93;;
55007;SDS011;40902;45.116;21.296;2023-09-12T07:59:15;17.15;;;4.85;;
55007;SDS011;40902;45.116;21.296;2023-09-12T08:01:40;13.35;;;4.65;;
55007;SDS011;40902;45.116;21.296;2023-09-12T08:04:06;12.15;;;4.68;;
55007;SDS011;40902;45.116;21.296;2023-09-12T08:06:32;8.57;;;3.58;;
55007;SDS011;40902;45.116;21.296;2023-09-12T08:08:58;11.50;;;4.00;;
55007;SDS011;40902;45.116;21.296;2023-09-12T08:11:24;8.52;;;3.70;;
55007;SDS011;40902;45.116;21.296;2023-09-12T08:13:49;14.80;;;4.82;;
55007;SDS011;40902;45.116;21.296;2023-09-12T08:16:15;8.23;;;4.00;;
55007;SDS011;40902;45.116;21.296;2023-09-12T08:18:41;10.55;;;4.45;;
55007;SDS011;40902;45.116;21.296;2023-09-12T08:21:07;11.98;;;4.47;;
55007;SDS011;40902;45.116;21.296;2023-09-12T08:23:35;10.00;;;4.20;;
55007;SDS011;40902;45.116;21.296;2023-09-12T08:26:01;9.65;;;4.60;;
55007;SDS011;40902;45.116;21.296;2023-09-12T08:28:27;8.00;;;4.35;;
55007;SDS011;40902;45.116;21.296;2023-09-12T08:30:53;12.00;;;4.85;;
55007;SDS011;40902;45.116;21.296;2023-09-12T08:33:19;11.85;;;4.60;;
55007;SDS011;40902;45.116;21.296;2023-09-12T08:35:44;9.95;;;4.03;;
55007;SDS011;40902;45.116;21.296;2023-09-12T08:38:10;8.52;;;4.00;;
55007;SDS011;40902;45.116;21.296;2023-09-12T08:40:36;6.85;;;4.20;;
55007;SDS011;40902;45.116;21.296;2023-09-12T08:43:02;7.10;;;3.85;;
55007;SDS011;40902;45.116;21.296;2023-09-12T08:45:29;6.97;;;3.80;;
55007;SDS011;40902;45.116;21.296;2023-09-12T08:47:56;7.68;;;4.55;;
55007;SDS011;40902;45.116;21.296;2023-09-12T08:50:24;7.38;;;3.88;;
55007;SDS011;40902;45.116;21.296;2023-09-12T08:52:50;8.15;;;3.78;;
55007;SDS011;40902;45.116;21.296;2023-09-12T08:55:16;12.25;;;4.15;;
55007;SDS011;40902;45.116;21.296;2023-09-12T08:57:42;7.60;;;4.15;;
55007;SDS011;40902;45.116;21.296;2023-09-12T09:00:09;15.00;;;4.57;;
55007;SDS011;40902;45.116;21.296;2023-09-12T09:02:42;6.82;;;3.90;;
55007;SDS011;40902;45.116;21.296;2023-09-12T09:05:09;10.50;;;4.18;;
55007;SDS011;40902;45.116;21.296;2023-09-12T09:07:42;7.38;;;4.25;;
55007;SDS011;40902;45.116;21.296;2023-09-12T09:10:14;7.50;;;4.40;;
55007;SDS011;40902;45.116;21.296;2023-09-12T09:12:43;6.03;;;3.70;;
55007;SDS011;40902;45.116;21.296;2023-09-12T09:15:26;7.38;;;3.92;;
55007;SDS011;40902;45.116;21.296;2023-09-12T09:17:54;7.22;;;4.15;;
55007;SDS011;40902;45.116;21.296;2023-09-12T09:20:21;8.85;;;3.83;;
55007;SDS011;40902;45.116;21.296;2023-09-12T09:22:56;6.82;;;3.90;;
55007;SDS011;40902;45.116;21.296;2023-09-12T09:25:22;8.80;;;3.97;;
55007;SDS011;40902;45.116;21.296;2023-09-12T09:27:47;8.68;;;4.10;;
55007;SDS011;40902;45.116;21.296;2023-09-12T09:30:13;7.07;;;3.85;;
55007;SDS011;40902;45.116;21.296;2023-09-12T09:32:39;5.88;;;3.75;;
55007;SDS011;40902;45.116;21.296;2023-09-12T09:35:05;5.88;;;3.40;;
55007;SDS011;40902;45.116;21.296;2023-09-12T09:37:31;7.55;;;3.88;;
55007;SDS011;40902;45.116;21.296;2023-09-12T09:39:57;6.40;;;4.30;;
55007;SDS011;40902;45.116;21.296;2023-09-12T09:42:23;10.50;;;4.57;;
55007;SDS011;40902;45.116;21.296;2023-09-12T09:44:49;14.15;;;5.18;;
55007;SDS011;40902;45.116;21.296;2023-09-12T09:47:14;19.10;;;5.63;;
55007;SDS011;40902;45.116;21.296;2023-09-12T09:49:40;15.00;;;5.13;;
55007;SDS011;40902;45.116;21.296;2023-09-12T09:52:10;19.40;;;4.78;;
55007;SDS011;40902;45.116;21.296;2023-09-12T09:54:38;18.25;;;5.63;;
55007;SDS011;40902;45.116;21.296;2023-09-12T09:57:09;13.98;;;5.00;;
55007;SDS011;40902;45.116;21.296;2023-09-12T09:59:35;16.10;;;4.57;;
55007;SDS011;40902;45.116;21.296;2023-09-12T10:02:00;13.75;;;4.53;;
55007;SDS011;40902;45.116;21.296;2023-09-12T10:04:28;20.30;;;4.80;;
55007;SDS011;40902;45.116;21.296;2023-09-12T10:06:57;13.52;;;4.97;;
55007;SDS011;40902;45.116;21.296;2023-09-12T10:09:25;11.40;;;4.47;;
55007;SDS011;40902;45.116;21.296;2023-09-12T10:11:52;12.07;;;4.72;;
55007;SDS011;40902;45.116;21.296;2023-09-12T10:14:19;9.45;;;4.50;;
55007;SDS011;40902;45.116;21.296;2023-09-12T10:16:47;13.48;;;4.22;;
55007;SDS011;40902;45.116;21.296;2023-09-12T10:19:18;11.18;;;4.47;;
55007;SDS011;40902;45.116;21.296;2023-09-12T10:22:09;10.10;;;4.13;;
55007;SDS011;40902;45.116;21.296;2023-09-12T10:24:46;10.23;;;4.47;;
55007;SDS011;40902;45.116;21.296;2023-09-12T10:27:14;10.88;;;3.70;;
55007;SDS011;40902;45.116;21.296;2023-09-12T10:29:40;11.85;;;4.80;;
55007;SDS011;40902;45.116;21.296;2023-09-12T10:32:07;11.90;;;4.65;;
55007;SDS011;40902;45.116;21.296;2023-09-12T10:34:34;11.60;;;4.18;;
55007;SDS011;40902;45.116;21.296;2023-09-12T10:37:01;11.25;;;4.20;;
55007;SDS011;40902;45.116;21.296;2023-09-12T10:39:30;10.18;;;4.82;;
55007;SDS011;40902;45.116;21.296;2023-09-12T10:41:58;9.45;;;4.28;;
55007;SDS011;40902;45.116;21.296;2023-09-12T10:44:24;9.40;;;3.95;;
55007;SDS011;40902;45.116;21.296;2023-09-12T10:46:51;10.68;;;4.15;;
55007;SDS011;40902;45.116;21.296;2023-09-12T10:49:21;9.68;;;4.70;;
55007;SDS011;40902;45.116;21.296;2023-09-12T10:51:47;13.50;;;4.95;;
55007;SDS011;40902;45.116;21.296;2023-09-12T10:54:22;9.18;;;4.75;;
55007;SDS011;40902;45.116;21.296;2023-09-12T10:57:04;8.52;;;4.15;;
55007;SDS011;40902;45.116;21.296;2023-09-12T10:59:31;11.73;;;4.85;;
55007;SDS011;40902;45.116;21.296;2023-09-12T11:04:55;8.75;;;4.60;;
55007;SDS011;40902;45.116;21.296;2023-09-12T11:12:40;8.02;;;4.28;;
55007;SDS011;40902;45.116;21.296;2023-09-12T11:15:07;9.07;;;4.82;;
55007;SDS011;40902;45.116;21.296;2023-09-12T11:17:39;10.75;;;4.80;;
55007;SDS011;40902;45.116;21.296;2023-09-12T11:20:06;9.05;;;4.75;;
55007;SDS011;40902;45.116;21.296;2023-09-12T11:22:37;7.35;;;4.25;;
55007;SDS011;40902;45.116;21.296;2023-09-12T11:25:05;8.85;;;4.10;;
55007;SDS011;40902;45.116;21.296;2023-09-12T11:30:21;9.50;;;4.22;;
55007;SDS011;40902;45.116;21.296;2023-09-12T11:32:55;9.13;;;4.20;;
55007;SDS011;40902;45.116;21.296;2023-09-12T11:35:23;6.75;;;4.07;;
55007;SDS011;40902;45.116;21.296;2023-09-12T11:37:57;8.18;;;4.00;;
55007;SDS011;40902;45.116;21.296;2023-09-12T11:40:45;6.97;;;3.70;;
55007;SDS011;40902;45.116;21.296;2023-09-12T11:43:20;9.32;;;3.83;;
55007;SDS011;40902;45.116;21.296;2023-09-12T11:45:48;9.52;;;4.43;;
55007;SDS011;40902;45.116;21.296;2023-09-12T11:48:15;8.93;;;3.80;;
55007;SDS011;40902;45.116;21.296;2023-09-12T11:50:40;8.90;;;3.53;;
55007;SDS011;40902;45.116;21.296;2023-09-12T11:55:47;6.30;;;3.40;;
55007;SDS011;40902;45.116;21.296;2023-09-12T11:58:16;6.03;;;3.75;;
55007;SDS011;40902;45.116;21.296;2023-09-12T12:00:44;6.13;;;3.42;;
55007;SDS011;40902;45.116;21.296;2023-09-12T12:03:14;6.45;;;3.72;;
55007;SDS011;40902;45.116;21.296;2023-09-12T12:05:41;6.60;;;3.40;;
55007;SDS011;40902;45.116;21.296;2023-09-12T12:08:10;7.45;;;3.60;;
55007;SDS011;40902;45.116;21.296;2023-09-12T12:10:36;7.38;;;3.65;;
55007;SDS011;40902;45.116;21.296;2023-09-12T12:13:06;6.45;;;3.30;;
55007;SDS011;40902;45.116;21.296;2023-09-12T12:15:41;5.82;;;3.60;;
55007;SDS011;40902;45.116;21.296;2023-09-12T12:18:07;6.72;;;3.90;;
55007;SDS011;40902;45.116;21.296;2023-09-12T12:20:33;6.57;;;3.53;;
55007;SDS011;40902;45.116;21.296;2023-09-12T12:22:59;7.03;;;3.55;;
55007;SDS011;40902;45.116;21.296;2023-09-12T12:25:25;6.25;;;3.33;;
55007;SDS011;40902;45.116;21.296;2023-09-12T12:27:50;5.85;;;3.45;;
55007;SDS011;40902;45.116;21.296;2023-09-12T12:30:17;6.28;;;3.40;;
55007;SDS011;40902;45.116;21.296;2023-09-12T12:32:45;5.80;;;3.45;;
55007;SDS011;40902;45.116;21.296;2023-09-12T12:35:21;8.40;;;3.97;;
55007;SDS011;40902;45.116;21.296;2023-09-12T12:37:48;7.90;;;3.83;;
55007;SDS011;40902;45.116;21.296;2023-09-12T12:40:15;7.68;;;3.80;;
55007;SDS011;40902;45.116;21.296;2023-09-12T12:42:42;5.88;;;3.15;;
55007;SDS011;40902;45.116;21.296;2023-09-12T12:45:12;6.03;;;3.45;;
55007;SDS011;40902;45.116;21.296;2023-09-12T12:47:44;5.88;;;3.60;;
55007;SDS011;40902;45.116;21.296;2023-09-12T12:50:10;11.23;;;3.33;;
55007;SDS011;40902;45.116;21.296;2023-09-12T12:52:37;5.07;;;3.08;;
55007;SDS011;40902;45.116;21.296;2023-09-12T12:55:04;6.30;;;3.30;;
55007;SDS011;40902;45.116;21.296;2023-09-12T12:57:40;5.88;;;3.25;;
55007;SDS011;40902;45.116;21.296;2023-09-12T13:00:10;9.07;;;3.80;;
55007;SDS011;40902;45.116;21.296;2023-09-12T13:02:38;6.82;;;3.40;;
55007;SDS011;40902;45.116;21.296;2023-09-12T13:05:06;6.88;;;3.22;;
55007;SDS011;40902;45.116;21.296;2023-09-12T13:07:45;5.53;;;3.20;;
55007;SDS011;40902;45.116;21.296;2023-09-12T13:10:10;6.57;;;3.30;;
55007;SDS011;40902;45.116;21.296;2023-09-12T13:12:36;6.10;;;3.50;;
55007;SDS011;40902;45.116;21.296;2023-09-12T13:15:05;5.93;;;3.35;;
55007;SDS011;40902;45.116;21.296;2023-09-12T13:17:31;6.38;;;3.53;;
55007;SDS011;40902;45.116;21.296;2023-09-12T13:19:57;5.40;;;3.33;;
55007;SDS011;40902;45.116;21.296;2023-09-12T13:22:23;5.30;;;3.10;;
55007;SDS011;40902;45.116;21.296;2023-09-12T13:24:48;5.68;;;3.30;;
55007;SDS011;40902;45.116;21.296;2023-09-12T13:27:14;5.82;;;3.10;;
55007;SDS011;40902;45.116;21.296;2023-09-12T13:29:40;7.78;;;3.40;;
55007;SDS011;40902;45.116;21.296;2023-09-12T13:32:06;6.50;;;3.72;;
55007;SDS011;40902;45.116;21.296;2023-09-12T13:34:31;5.45;;;3.25;;
55007;SDS011;40902;45.116;21.296;2023-09-12T13:36:57;5.25;;;2.92;;
55007;SDS011;40902;45.116;21.296;2023-09-12T13:39:23;5.75;;;3.20;;
55007;SDS011;40902;45.116;21.296;2023-09-12T13:41:49;4.90;;;2.90;;
55007;SDS011;40902;45.116;21.296;2023-09-12T13:44:16;4.43;;;2.67;;
55007;SDS011;40902;45.116;21.296;2023-09-12T13:46:42;4.75;;;3.08;;
55007;SDS011;40902;45.116;21.296;2023-09-12T13:49:12;5.50;;;3.42;;
55007;SDS011;40902;45.116;21.296;2023-09-12T13:51:37;4.85;;;2.83;;
55007;SDS011;40902;45.116;21.296;2023-09-12T13:54:03;4.95;;;2.90;;
55007;SDS011;40902;45.116;21.296;2023-09-12T13:56:31;3.92;;;2.70;;
55007;SDS011;40902;45.116;21.296;2023-09-12T13:58:57;5.55;;;3.20;;
55007;SDS011;40902;45.116;21.296;2023-09-12T14:01:23;4.30;;;3.00;;
55007;SDS011;40902;45.116;21.296;2023-09-12T14:03:48;4.03;;;2.92;;
55007;SDS011;40902;45.116;21.296;2023-09-12T14:06:14;6.32;;;2.97;;
55007;SDS011;40902;45.116;21.296;2023-09-12T14:08:40;5.10;;;3.13;;
55007;SDS011;40902;45.116;21.296;2023-09-12T14:11:06;4.72;;;3.10;;
55007;SDS011;40902;45.116;21.296;2023-09-12T14:13:31;4.85;;;3.08;;
55007;SDS011;40902;45.116;21.296;2023-09-12T14:15:57;5.20;;;3.03;;
55007;SDS011;40902;45.116;21.296;2023-09-12T14:18:24;5.72;;;3.13;;
55007;SDS011;40902;45.116;21.296;2023-09-12T14:20:50;3.72;;;2.67;;
55007;SDS011;40902;45.116;21.296;2023-09-12T14:23:16;5.55;;;2.80;;
55007;SDS011;40902;45.116;21.296;2023-09-12T14:25:42;4.25;;;2.90;;
55007;SDS011;40902;45.116;21.296;2023-09-12T14:28:07;4.25;;;2.92;;
55007;SDS011;40902;45.116;21.296;2023-09-12T14:30:33;4.97;;;3.05;;
55007;SDS011;40902;45.116;21.296;2023-09-12T14:33:01;4.18;;;2.60;;
55007;SDS011;40902;45.116;21.296;2023-09-12T14:35:27;4.18;;;2.80;;
55007;SDS011;40902;45.116;21.296;2023-09-12T14:37:53;5.75;;;2.75;;
55007;SDS011;40902;45.116;21.296;2023-09-12T14:40:19;8.25;;;3.50;;
55007;SDS011;40902;45.116;21.296;2023-09-12T14:42:45;14.90;;;4.00;;
55007;SDS011;40902;45.116;21.296;2023-09-12T14:45:11;12.00;;;3.53;;
55007;SDS011;40902;45.116;21.296;2023-09-12T14:47:36;8.07;;;3.42;;
55007;SDS011;40902;45.116;21.296;2023-09-12T14:50:02;8.02;;;3.42;;